Time;durP1;ratioP1;P1;durP2;ratioP2;P2;SDS_P1;SDS_P2;PMS_P1;PMS_P2;Temp;Humidity;BMP_temperature;BMP_pressure;BME280_temperature;BME280_humidity;BME280_pressure;Samples;Min_cycle;Max_cycle;Signal;HPM_P1;HPM_P2
2020/12/04 00:02:18;;;;;;;29.85;16.25;;;-0.10;99.90;;;;;;5063499;28;20493;-83
2020/12/04 00:04:44;;;;;;;33.60;17.38;;;-0.10;99.90;;;;;;5063923;28;20079;-83
2020/12/04 00:07:11;;;;;;;30.80;16.13;;;-0.10;99.90;;;;;;5061586;28;20540;-83
2020/12/04 00:09:42;;;;;;;29.20;15.65;;;-0.10;99.90;;;;;;5094060;28;20053;-83
2020/12/04 00:12:09;;;;;;;29.88;16.10;;;-0.10;99.90;;;;;;5093638;28;20049;-83
2020/12/04 00:14:35;;;;;;;30.20;16.20;;;0.00;99.90;;;;;;5060654;28;20053;-82
2020/12/04 00:17:01;;;;;;;27.25;14.90;;;0.00;99.90;;;;;;5059109;28;20072;-83
2020/12/04 00:19:27;;;;;;;30.60;15.85;;;0.00;99.90;;;;;;5060978;28;20084;-82
2020/12/04 00:21:54;;;;;;;26.02;14.82;;;0.00;99.90;;;;;;5092214;28;20128;-82
2020/12/04 00:24:20;;;;;;;25.73;14.35;;;0.00;99.90;;;;;;5088897;28;20092;-82
2020/12/04 00:26:46;;;;;;;26.55;14.73;;;0.10;99.90;;;;;;5059843;28;20088;-83
2020/12/04 00:29:13;;;;;;;29.08;14.13;;;0.10;99.90;;;;;;5058795;28;20103;-82
2020/12/04 00:31:39;;;;;;;24.67;14.15;;;0.10;99.90;;;;;;5057199;28;20107;-82
2020/12/04 00:34:05;;;;;;;21.52;13.10;;;0.10;99.90;;;;;;5089035;28;20049;-82
2020/12/04 00:36:31;;;;;;;26.05;13.68;;;0.20;99.90;;;;;;5056695;28;20139;-82
2020/12/04 00:38:57;;;;;;;22.55;13.13;;;0.20;99.90;;;;;;5057766;28;20466;-82
2020/12/04 00:41:24;;;;;;;22.40;13.32;;;0.20;99.90;;;;;;5055201;28;20071;-82
2020/12/04 00:43:51;;;;;;;20.90;12.13;;;0.30;99.90;;;;;;5088956;28;20132;-83
2020/12/04 00:46:17;;;;;;;21.13;11.82;;;0.40;99.90;;;;;;5088467;28;20053;-82
2020/12/04 00:48:44;;;;;;;21.85;11.85;;;0.40;99.90;;;;;;5055458;28;20140;-82
2020/12/04 00:51:10;;;;;;;23.25;12.55;;;0.40;99.90;;;;;;5055430;28;20053;-83
2020/12/04 00:53:37;;;;;;;21.00;11.48;;;0.40;99.90;;;;;;5088415;28;20307;-82
2020/12/04 00:56:04;;;;;;;21.25;12.00;;;0.50;99.90;;;;;;5054308;28;20045;-82
2020/12/04 00:58:32;;;;;;;20.35;11.88;;;0.50;99.90;;;;;;5054434;28;20049;-82
2020/12/04 01:00:59;;;;;;;17.65;10.55;;;0.50;99.90;;;;;;5054475;28;20091;-82
2020/12/04 01:03:26;;;;;;;21.38;10.60;;;0.50;99.90;;;;;;5054353;28;20147;-81
2020/12/04 01:05:53;;;;;;;20.40;11.15;;;0.60;99.90;;;;;;5087390;28;20052;-82
2020/12/04 01:08:20;;;;;;;17.80;10.20;;;0.60;99.90;;;;;;5053616;28;20057;-82
2020/12/04 01:10:47;;;;;;;18.98;10.90;;;0.60;99.90;;;;;;5054658;28;20044;-82
2020/12/04 01:13:15;;;;;;;19.00;10.88;;;0.70;99.90;;;;;;5085481;28;20053;-81
2020/12/04 01:15:41;;;;;;;19.30;10.05;;;0.60;99.90;;;;;;5053793;28;20128;-82
2020/12/04 01:18:08;;;;;;;20.10;11.00;;;0.60;99.90;;;;;;5053828;28;20056;-82
2020/12/04 01:20:34;;;;;;;17.27;10.05;;;0.60;99.90;;;;;;5085953;28;20429;-82
2020/12/04 01:23:01;;;;;;;19.02;10.55;;;0.70;99.90;;;;;;5085648;28;20124;-81
2020/12/04 01:25:27;;;;;;;18.67;10.27;;;0.70;99.90;;;;;;5053639;28;20057;-82
2020/12/04 01:27:53;;;;;;;18.08;11.40;;;0.70;99.90;;;;;;5052294;28;20049;-81
2020/12/04 01:30:19;;;;;;;18.90;10.55;;;0.70;99.90;;;;;;5085537;28;20053;-82
2020/12/04 01:32:47;;;;;;;16.65;10.23;;;0.70;99.90;;;;;;5085494;28;20052;-81
2020/12/04 01:35:13;;;;;;;17.45;9.73;;;0.70;99.90;;;;;;5053429;28;20076;-82
2020/12/04 01:37:40;;;;;;;16.83;9.98;;;0.70;99.90;;;;;;5052357;28;20041;-82
2020/12/04 01:40:07;;;;;;;16.90;9.43;;;0.70;99.90;;;;;;5052072;28;20456;-82
2020/12/04 01:42:34;;;;;;;16.80;9.55;;;0.70;99.90;;;;;;5052527;28;20508;-81
2020/12/04 01:45:00;;;;;;;16.92;9.80;;;0.70;99.90;;;;;;5053293;28;20087;-82
2020/12/04 01:47:26;;;;;;;15.45;8.82;;;0.70;99.90;;;;;;5060271;28;20053;-84
2020/12/04 01:49:53;;;;;;;17.40;9.18;;;0.70;99.90;;;;;;5061644;28;20055;-83
2020/12/04 01:52:19;;;;;;;13.70;8.68;;;0.70;99.90;;;;;;5063533;28;20075;-83
2020/12/04 01:54:47;;;;;;;15.65;8.63;;;0.70;99.90;;;;;;5061477;28;20057;-83
2020/12/04 01:57:19;;;;;;;25.98;10.18;;;0.70;99.90;;;;;;5059162;28;20132;-82
2020/12/04 01:59:46;;;;;;;15.35;9.75;;;0.70;99.90;;;;;;5066851;28;20037;-82
2020/12/04 02:02:18;;;;;;;15.57;8.48;;;0.70;99.90;;;;;;5075739;28;20045;-82
2020/12/04 02:04:46;;;;;;;15.45;8.75;;;0.60;99.90;;;;;;5078469;28;20041;-83
2020/12/04 02:07:37;;;;;;;16.48;9.32;;;0.60;99.90;;;;;;5077202;28;20040;-84
2020/12/04 02:10:12;;;;;;;12.57;8.07;;;0.70;99.90;;;;;;5062745;28;20083;-83
2020/12/04 02:12:39;;;;;;;14.95;8.45;;;0.70;99.90;;;;;;5063741;28;20055;-83
2020/12/04 02:15:08;;;;;;;13.75;8.40;;;0.70;99.90;;;;;;5063015;28;20052;-83
2020/12/04 02:17:34;;;;;;;16.25;9.13;;;0.70;99.90;;;;;;5062693;28;20471;-83
2020/12/04 02:20:00;;;;;;;14.52;8.45;;;0.70;99.90;;;;;;5064583;28;20072;-83
2020/12/04 02:22:34;;;;;;;14.45;8.73;;;0.70;99.90;;;;;;5062301;28;20068;-83
2020/12/04 02:25:01;;;;;;;12.38;8.50;;;0.80;99.90;;;;;;5062280;28;20573;-83
2020/12/04 02:27:27;;;;;;;14.75;8.50;;;0.80;99.90;;;;;;5064623;28;20099;-83
2020/12/04 02:29:53;;;;;;;12.13;8.25;;;0.80;99.90;;;;;;5062333;28;20540;-83
2020/12/04 02:32:21;;;;;;;14.50;8.20;;;0.80;99.90;;;;;;5060183;28;20091;-81
2020/12/04 02:34:47;;;;;;;13.80;7.70;;;0.80;99.90;;;;;;5060920;28;20551;-83
2020/12/04 02:37:13;;;;;;;11.13;7.93;;;0.80;99.90;;;;;;5064939;28;20481;-82
2020/12/04 02:39:39;;;;;;;13.75;8.10;;;0.80;99.90;;;;;;5064859;28;20049;-83
2020/12/04 02:42:06;;;;;;;12.30;7.95;;;0.90;99.90;;;;;;5064390;28;20128;-82
2020/12/04 02:44:32;;;;;;;14.00;8.13;;;0.80;99.90;;;;;;5065232;28;20091;-83
2020/12/04 02:46:59;;;;;;;13.48;8.50;;;0.80;99.90;;;;;;5068789;28;20098;-83
2020/12/04 02:49:25;;;;;;;12.60;7.70;;;0.90;99.90;;;;;;5064640;28;20057;-82
2020/12/04 02:51:53;;;;;;;13.80;8.00;;;0.90;99.90;;;;;;5064829;28;20109;-82
2020/12/04 02:54:19;;;;;;;11.45;7.65;;;0.90;99.90;;;;;;5065023;28;20095;-82
2020/12/04 02:56:46;;;;;;;11.30;7.75;;;0.90;99.90;;;;;;5063395;28;20044;-83
2020/12/04 02:59:12;;;;;;;10.95;7.75;;;0.90;99.90;;;;;;5062226;28;20049;-83
2020/12/04 03:01:38;;;;;;;13.43;8.32;;;0.80;99.90;;;;;;5065991;28;20421;-82
2020/12/04 03:04:04;;;;;;;12.60;7.43;;;0.80;99.90;;;;;;5065389;28;20059;-83
2020/12/04 03:06:31;;;;;;;19.30;8.70;;;0.80;99.90;;;;;;5059947;28;20045;-82
2020/12/04 03:08:57;;;;;;;9.93;7.15;;;0.80;99.90;;;;;;5063093;28;20048;-83
2020/12/04 03:11:24;;;;;;;12.55;7.97;;;0.80;99.90;;;;;;5063848;28;20497;-82
2020/12/04 03:13:51;;;;;;;17.05;8.38;;;0.90;99.90;;;;;;5062035;28;20474;-82
2020/12/04 03:16:17;;;;;;;10.77;7.38;;;0.90;99.90;;;;;;5061756;28;20084;-82
2020/12/04 03:18:44;;;;;;;10.85;7.75;;;0.90;99.90;;;;;;5066159;28;20044;-83
2020/12/04 03:21:10;;;;;;;13.85;7.93;;;0.90;99.90;;;;;;5062729;28;20051;-83
2020/12/04 03:23:37;;;;;;;13.38;8.05;;;0.90;99.90;;;;;;5061715;28;20045;-81
2020/12/04 03:26:04;;;;;;;14.05;7.60;;;0.90;99.90;;;;;;5065018;28;20049;-82
2020/12/04 03:28:30;;;;;;;10.43;7.15;;;0.90;99.90;;;;;;5064083;28;20049;-82
2020/12/04 03:30:56;;;;;;;12.98;7.50;;;0.80;99.90;;;;;;5061140;28;20059;-82
2020/12/04 03:33:23;;;;;;;11.38;7.45;;;0.90;99.90;;;;;;5061917;28;20049;-82
2020/12/04 03:35:49;;;;;;;11.65;7.60;;;0.90;99.90;;;;;;5061733;28;20068;-82
2020/12/04 03:38:16;;;;;;;11.68;7.00;;;0.90;99.90;;;;;;5067199;28;20052;-82
2020/12/04 03:40:44;;;;;;;11.52;7.35;;;0.90;99.90;;;;;;5065529;28;20111;-83
2020/12/04 03:43:10;;;;;;;12.98;7.55;;;0.90;99.90;;;;;;5063825;28;20113;-82
2020/12/04 03:45:36;;;;;;;12.35;7.80;;;0.90;99.90;;;;;;5063088;28;20112;-82
2020/12/04 03:48:03;;;;;;;11.70;7.50;;;0.90;99.90;;;;;;5062209;28;20480;-82
2020/12/04 03:50:29;;;;;;;11.98;8.02;;;0.90;99.90;;;;;;5061916;28;20060;-82
2020/12/04 03:52:56;;;;;;;12.57;8.10;;;1.00;99.90;;;;;;5062364;28;20049;-82
2020/12/04 03:55:22;;;;;;;13.02;8.07;;;1.00;99.90;;;;;;5060921;28;20065;-82
2020/12/04 03:57:48;;;;;;;13.70;8.48;;;1.00;99.90;;;;;;5060029;28;20128;-82
2020/12/04 04:00:14;;;;;;;17.63;7.88;;;1.00;99.90;;;;;;5061729;28;20200;-83
2020/12/04 04:02:41;;;;;;;12.95;7.40;;;1.00;99.90;;;;;;5062347;28;20098;-82
2020/12/04 04:05:07;;;;;;;10.98;7.85;;;1.00;99.90;;;;;;5056910;28;20053;-81
2020/12/04 04:07:33;;;;;;;11.55;7.30;;;1.00;99.90;;;;;;5061904;28;20087;-83
2020/12/04 04:09:59;;;;;;;14.20;7.97;;;1.00;99.90;;;;;;5060401;28;20051;-82
2020/12/04 04:12:26;;;;;;;11.80;8.00;;;1.00;99.90;;;;;;5057608;28;20088;-81
2020/12/04 04:14:52;;;;;;;13.20;7.95;;;1.10;99.90;;;;;;5058872;28;20425;-82
2020/12/04 04:17:19;;;;;;;12.25;7.70;;;1.10;99.90;;;;;;5060162;28;20555;-82
2020/12/04 04:19:45;;;;;;;12.15;7.65;;;1.20;99.90;;;;;;5060026;28;20132;-82
2020/12/04 04:22:11;;;;;;;14.43;8.00;;;1.20;99.90;;;;;;5057492;28;20485;-82
2020/12/04 04:24:37;;;;;;;11.80;8.07;;;1.30;99.90;;;;;;5059975;28;20064;-82
2020/12/04 04:27:03;;;;;;;14.27;8.68;;;1.20;99.90;;;;;;5059493;28;20083;-83
2020/12/04 04:29:30;;;;;;;11.88;7.60;;;1.20;99.90;;;;;;5059477;28;20476;-82
2020/12/04 04:31:56;;;;;;;13.10;8.02;;;1.10;99.90;;;;;;5056059;28;20076;-82
2020/12/04 04:34:22;;;;;;;16.55;8.45;;;1.00;99.90;;;;;;5060884;28;20061;-83
2020/12/04 04:36:49;;;;;;;9.95;7.10;;;1.00;99.90;;;;;;5061610;28;20510;-82
2020/12/04 04:39:15;;;;;;;13.35;8.10;;;1.00;99.90;;;;;;5059825;28;20131;-82
2020/12/04 04:41:42;;;;;;;14.43;7.82;;;0.90;99.90;;;;;;5062012;28;20489;-82
2020/12/04 04:44:11;;;;;;;13.82;8.23;;;0.90;99.90;;;;;;5059561;28;20519;-82
2020/12/04 04:46:51;;;;;;;12.00;7.65;;;0.80;99.90;;;;;;5060053;28;20083;-82
2020/12/04 04:49:27;;;;;;;13.05;8.40;;;0.80;99.90;;;;;;5061031;28;20521;-82
2020/12/04 04:51:57;;;;;;;17.77;7.63;;;0.80;99.90;;;;;;5059384;28;20084;-83
2020/12/04 04:54:25;;;;;;;17.38;8.43;;;0.80;99.90;;;;;;5061231;28;20512;-82
2020/12/04 04:56:52;;;;;;;16.38;7.53;;;0.90;99.90;;;;;;5058229;28;20092;-83
2020/12/04 04:59:20;;;;;;;12.32;7.95;;;0.80;99.90;;;;;;5059735;28;20109;-82
2020/12/04 05:01:50;;;;;;;13.07;8.05;;;0.90;99.90;;;;;;5058263;28;20099;-82
2020/12/04 05:04:17;;;;;;;11.93;7.90;;;0.90;99.90;;;;;;5058120;28;20084;-82
2020/12/04 05:06:43;;;;;;;11.45;7.55;;;0.80;99.90;;;;;;5054360;28;20049;-82
2020/12/04 05:09:28;;;;;;;13.30;8.38;;;0.70;99.90;;;;;;5052957;28;20080;-82
2020/12/04 05:11:59;;;;;;;14.27;8.35;;;0.70;99.90;;;;;;5052896;28;20084;-82
2020/12/04 05:14:27;;;;;;;15.27;7.88;;;0.60;99.90;;;;;;5054942;28;20095;-82
2020/12/04 05:16:57;;;;;;;14.13;9.05;;;0.70;99.90;;;;;;5054433;28;20041;-82
2020/12/04 05:19:36;;;;;;;13.80;7.97;;;0.60;99.90;;;;;;5054337;28;20438;-82
2020/12/04 05:22:09;;;;;;;11.82;7.35;;;0.60;99.90;;;;;;5053564;28;20049;-81
2020/12/04 05:24:36;;;;;;;11.18;6.95;;;0.80;99.90;;;;;;5053977;28;20053;-81
2020/12/04 05:27:22;;;;;;;9.88;6.25;;;1.00;99.90;;;;;;5057407;28;20091;-83
2020/12/04 05:29:49;;;;;;;9.77;6.78;;;1.20;99.90;;;;;;5062799;28;20071;-83
2020/12/04 05:32:16;;;;;;;9.48;6.75;;;1.40;99.90;;;;;;5062607;28;20057;-83
2020/12/04 05:34:43;;;;;;;9.13;6.47;;;1.60;99.90;;;;;;5061561;28;20049;-83
2020/12/04 05:37:16;;;;;;;11.55;6.63;;;1.70;99.90;;;;;;5062502;28;20105;-82
2020/12/04 05:39:49;;;;;;;;;;;1.70;99.90;;;;;;5062415;28;20083;-82
2020/12/04 05:42:36;;;;;;;10.80;6.63;;;1.80;99.90;;;;;;5054894;28;19959;-83
2020/12/04 05:45:04;;;;;;;11.15;6.95;;;1.70;99.90;;;;;;5055135;28;20084;-82
2020/12/04 05:47:38;;;;;;;13.80;7.50;;;1.70;99.90;;;;;;5055661;28;20117;-83
2020/12/04 05:50:07;;;;;;;15.38;6.80;;;1.70;99.90;;;;;;5054234;28;20063;-83
2020/12/04 05:52:34;;;;;;;15.00;6.55;;;1.60;99.90;;;;;;5054754;28;20114;-83
2020/12/04 05:55:06;;;;;;;22.25;8.77;;;1.60;99.90;;;;;;5054165;28;20055;-83
2020/12/04 05:57:43;;;;;;;18.85;8.32;;;1.50;99.90;;;;;;5055264;28;20052;-82
2020/12/04 06:00:10;;;;;;;23.58;7.75;;;1.30;99.90;;;;;;5055098;28;20051;-82
2020/12/04 06:02:38;;;;;;;19.45;9.00;;;1.20;99.90;;;;;;5053825;28;20091;-83
2020/12/04 06:05:06;;;;;;;15.63;7.22;;;1.10;99.90;;;;;;5053232;28;20114;-83
2020/12/04 06:07:32;;;;;;;26.67;9.02;;;1.00;99.90;;;;;;5053398;28;20112;-83
2020/12/04 06:09:59;;;;;;;12.52;7.82;;;1.00;99.90;;;;;;5057347;28;20545;-82
2020/12/04 06:12:25;;;;;;;15.13;6.95;;;1.00;99.90;;;;;;5057395;28;20178;-82
2020/12/04 06:14:52;;;;;;;25.35;8.18;;;0.80;99.90;;;;;;5058512;28;20457;-82
2020/12/04 06:17:18;;;;;;;35.17;8.52;;;0.80;99.90;;;;;;5058322;28;20083;-82
2020/12/04 06:19:45;;;;;;;22.88;9.15;;;0.80;99.90;;;;;;5059052;28;20272;-82
2020/12/04 06:22:17;;;;;;;16.25;8.43;;;0.80;99.90;;;;;;5058572;28;20076;-83
2020/12/04 06:24:52;;;;;;;23.00;8.43;;;0.90;99.90;;;;;;5059288;28;20521;-83
2020/12/04 06:27:34;;;;;;;19.60;9.55;;;0.80;99.90;;;;;;5057756;28;20517;-82
2020/12/04 06:30:01;;;;;;;28.25;9.73;;;0.80;99.90;;;;;;5059905;28;20053;-83
2020/12/04 06:32:41;;;;;;;38.28;9.85;;;0.80;99.90;;;;;;5057342;28;20494;-83
2020/12/04 06:35:08;;;;;;;31.55;8.43;;;0.70;99.90;;;;;;5057034;28;20064;-82
2020/12/04 06:37:40;;;;;;;46.55;9.10;;;0.70;99.90;;;;;;5057446;28;20524;-81
2020/12/04 06:40:23;;;;;;;17.88;6.78;;;0.70;99.90;;;;;;5058707;28;20128;-81
2020/12/04 06:42:51;;;;;;;13.25;7.20;;;0.70;99.90;;;;;;5057222;28;20052;-82
2020/12/04 06:45:17;;;;;;;32.95;7.68;;;0.80;99.90;;;;;;5058557;28;20148;-83
2020/12/04 06:47:44;;;;;;;22.52;7.30;;;0.90;99.90;;;;;;5055823;28;20533;-81
2020/12/04 06:50:10;;;;;;;8.82;5.75;;;1.10;99.90;;;;;;5058072;28;20136;-83
2020/12/04 06:52:37;;;;;;;17.60;6.22;;;1.10;99.90;;;;;;5058246;28;20421;-83
2020/12/04 06:55:03;;;;;;;9.48;5.80;;;1.30;99.90;;;;;;5058192;28;20045;-83
2020/12/04 06:57:30;;;;;;;13.60;6.75;;;1.30;99.90;;;;;;5055009;28;20524;-82
2020/12/04 06:59:56;;;;;;;19.27;6.55;;;1.40;99.90;;;;;;5051491;28;20095;-82
2020/12/04 07:02:24;;;;;;;16.08;6.63;;;1.50;99.90;;;;;;5054661;28;20569;-82
2020/12/04 07:04:54;;;;;;;8.57;5.70;;;1.60;99.90;;;;;;5056486;28;20052;-82
2020/12/04 07:07:24;;;;;;;9.43;5.97;;;1.70;99.90;;;;;;5056413;28;20045;-82
2020/12/04 07:10:01;;;;;;;10.23;6.28;;;1.90;99.90;;;;;;5056173;28;20128;-82
2020/12/04 07:12:30;;;;;;;9.35;5.72;;;2.10;99.90;;;;;;5051594;28;20527;-82
2020/12/04 07:14:58;;;;;;;7.32;5.55;;;2.10;99.90;;;;;;5050420;28;20041;-82
2020/12/04 07:17:26;;;;;;;9.60;6.05;;;2.20;99.90;;;;;;5055332;28;20139;-82
2020/12/04 07:19:54;;;;;;;8.15;5.75;;;2.20;99.90;;;;;;5059674;28;20049;-83
2020/12/04 07:22:24;;;;;;;7.15;5.45;;;2.20;99.90;;;;;;5061599;28;20068;-83
2020/12/04 07:24:52;;;;;;;10.57;5.68;;;2.20;99.90;;;;;;5060451;28;20140;-83
2020/12/04 07:27:24;;;;;;;10.75;6.07;;;2.20;99.90;;;;;;5059500;28;20088;-83
2020/12/04 07:29:51;;;;;;;10.18;6.35;;;2.20;99.90;;;;;;5059111;28;20486;-83
2020/12/04 07:32:25;;;;;;;11.30;7.15;;;2.20;99.90;;;;;;5058717;28;20068;-83
2020/12/04 07:34:52;;;;;;;16.15;7.50;;;2.20;99.90;;;;;;5059762;28;20041;-83
2020/12/04 07:37:18;;;;;;;17.95;6.95;;;2.20;99.90;;;;;;5058691;28;20449;-82
2020/12/04 07:39:45;;;;;;;18.17;6.53;;;2.30;99.90;;;;;;5059754;28;20104;-83
2020/12/04 07:42:13;;;;;;;11.52;6.82;;;2.40;99.90;;;;;;5058294;28;20501;-82
2020/12/04 07:44:50;;;;;;;10.48;5.95;;;2.30;99.90;;;;;;5058673;28;20049;-83
2020/12/04 07:47:17;;;;;;;10.07;6.50;;;2.30;99.90;;;;;;5058203;28;20584;-83
2020/12/04 07:49:52;;;;;;;11.02;6.55;;;2.30;99.90;;;;;;5057437;28;20099;-82
2020/12/04 07:52:20;;;;;;;10.85;6.70;;;2.40;99.90;;;;;;5057513;28;20084;-82
2020/12/04 07:55:02;;;;;;;8.85;6.57;;;2.50;99.90;;;;;;5056713;28;20482;-82
2020/12/04 07:57:48;;;;;;;11.20;6.22;;;2.60;99.90;;;;;;5056104;28;20489;-82
2020/12/04 08:00:15;;;;;;;10.90;6.18;;;2.70;99.90;;;;;;5045672;28;20072;-82
2020/12/04 08:02:41;;;;;;;16.77;7.18;;;2.70;99.90;;;;;;5056127;28;20485;-82
2020/12/04 08:05:08;;;;;;;14.98;6.65;;;2.70;99.90;;;;;;5054887;28;20056;-82
2020/12/04 08:07:35;;;;;;;13.43;6.40;;;2.80;99.90;;;;;;5055214;28;20060;-83
2020/12/04 08:10:01;;;;;;;11.30;6.40;;;2.80;99.90;;;;;;5055515;28;20053;-82
2020/12/04 08:12:30;;;;;;;12.52;6.80;;;2.80;99.90;;;;;;5055936;28;20523;-82
2020/12/04 08:14:58;;;;;;;8.65;5.57;;;2.80;99.90;;;;;;5055567;28;20091;-82
2020/12/04 08:17:29;;;;;;;9.70;6.60;;;2.90;99.90;;;;;;5054602;28;20127;-82
2020/12/04 08:19:59;;;;;;;12.65;6.57;;;3.00;99.90;;;;;;5055651;28;20059;-83
2020/12/04 08:22:27;;;;;;;9.85;6.70;;;3.10;99.90;;;;;;5055506;28;20055;-83
2020/12/04 08:27:50;;;;;;;10.93;6.35;;;3.20;99.90;;;;;;5055151;28;20136;-82
2020/12/04 08:30:21;;;;;;;19.17;7.40;;;3.10;99.90;;;;;;5054554;28;20092;-82
2020/12/04 08:32:56;;;;;;;11.27;7.13;;;3.10;99.90;;;;;;5054434;28;20045;-82
2020/12/04 08:35:35;;;;;;;11.50;7.00;;;3.20;99.90;;;;;;5053783;28;20084;-82
2020/12/04 08:38:22;;;;;;;15.35;6.97;;;3.20;99.90;;;;;;5054722;28;20124;-83
2020/12/04 08:40:52;;;;;;;11.68;7.60;;;3.30;99.90;;;;;;5053364;28;20045;-83
2020/12/04 08:43:22;;;;;;;10.65;5.97;;;3.30;99.90;;;;;;5053501;28;20091;-82
2020/12/04 08:45:51;;;;;;;11.02;6.97;;;3.30;99.90;;;;;;5053791;28;20088;-83
2020/12/04 08:48:23;;;;;;;11.55;7.13;;;3.40;99.90;;;;;;5054978;28;20488;-82
2020/12/04 08:50:49;;;;;;;11.50;7.30;;;3.40;99.90;;;;;;5053979;28;20053;-83
2020/12/04 08:53:18;;;;;;;11.23;7.13;;;3.50;99.90;;;;;;5054029;28;20053;-83
2020/12/04 08:55:49;;;;;;;11.02;7.07;;;3.60;99.90;;;;;;5053641;28;20104;-82
2020/12/04 08:58:17;;;;;;;11.35;6.90;;;3.60;99.90;;;;;;5054151;28;20044;-83
2020/12/04 09:00:45;;;;;;;12.60;6.85;;;3.70;99.90;;;;;;5055383;28;20095;-82
2020/12/04 09:03:12;;;;;;;11.15;7.60;;;3.80;99.90;;;;;;5046666;28;20132;-82
2020/12/04 09:05:38;;;;;;;10.23;7.00;;;3.90;99.90;;;;;;5033747;28;20402;-82
2020/12/04 09:08:06;;;;;;;10.60;6.53;;;4.00;99.90;;;;;;5034544;28;20091;-83
2020/12/04 09:10:34;;;;;;;11.90;7.22;;;4.20;99.90;;;;;;5035036;28;20124;-81
2020/12/04 09:13:00;;;;;;;9.52;6.97;;;4.40;99.90;;;;;;5037797;28;20124;-83
2020/12/04 09:15:29;;;;;;;10.00;7.35;;;4.40;99.90;;;;;;5036340;28;20124;-83
2020/12/04 09:17:56;;;;;;;12.90;7.30;;;4.40;99.90;;;;;;5036862;28;20581;-85
2020/12/04 09:20:24;;;;;;;10.57;7.18;;;4.40;99.90;;;;;;5035911;28;20132;-83
2020/12/04 09:22:51;;;;;;;10.07;6.90;;;4.30;99.90;;;;;;5035672;28;20049;-83
2020/12/04 09:25:19;;;;;;;11.02;7.25;;;4.30;99.90;;;;;;5036329;28;20080;-83
2020/12/04 09:27:48;;;;;;;13.05;7.57;;;4.40;99.90;;;;;;5035307;28;20050;-83
2020/12/04 09:30:16;;;;;;;25.27;8.85;;;4.50;99.90;;;;;;5033797;28;20471;-82
2020/12/04 09:32:47;;;;;;;11.13;6.88;;;4.60;99.90;;;;;;5035113;28;20089;-83
2020/12/04 09:35:13;;;;;;;21.95;9.10;;;4.80;99.90;;;;;;5033705;28;20085;-83
2020/12/04 09:37:41;;;;;;;15.43;7.95;;;4.80;99.90;;;;;;5033886;28;20107;-83
2020/12/04 09:40:17;;;;;;;13.80;7.75;;;5.00;99.90;;;;;;5034512;28;20133;-83
2020/12/04 09:42:44;;;;;;;12.70;7.30;;;5.10;99.90;;;;;;5033319;28;20046;-83
2020/12/04 09:45:15;;;;;;;12.15;7.32;;;5.10;99.90;;;;;;5033025;28;20049;-83
2020/12/04 09:47:41;;;;;;;10.45;7.20;;;5.10;99.90;;;;;;5034384;28;20045;-83
2020/12/04 09:50:10;;;;;;;15.98;8.35;;;4.90;99.90;;;;;;5034648;28;20084;-82
2020/12/04 09:52:38;;;;;;;16.35;7.47;;;4.70;99.90;;;;;;5033770;28;20057;-83
2020/12/04 09:55:05;;;;;;;15.95;7.45;;;4.80;99.90;;;;;;5035514;28;20087;-83
2020/12/04 09:57:34;;;;;;;11.88;7.88;;;4.80;99.90;;;;;;5051411;28;20049;-83
2020/12/04 10:00:01;;;;;;;23.00;8.88;;;4.90;99.90;;;;;;5044249;28;20119;-82
2020/12/04 10:02:27;;;;;;;12.13;7.38;;;4.90;99.90;;;;;;5038320;28;20124;-83
2020/12/04 10:04:54;;;;;;;12.35;7.40;;;4.90;99.90;;;;;;5042647;28;20064;-83
2020/12/04 10:07:20;;;;;;;11.75;7.20;;;5.00;99.90;;;;;;5044301;28;20051;-83
2020/12/04 10:09:46;;;;;;;23.42;8.88;;;5.10;99.90;;;;;;5043051;28;20048;-83
2020/12/04 10:12:12;;;;;;;19.60;7.72;;;5.00;99.90;;;;;;5044298;28;20493;-83
2020/12/04 10:14:41;;;;;;;14.55;7.63;;;5.20;99.90;;;;;;5042052;28;20084;-83
2020/12/04 10:17:08;;;;;;;23.15;8.48;;;5.20;99.90;;;;;;5040736;28;20150;-83
2020/12/04 10:19:35;;;;;;;14.68;7.70;;;5.00;99.90;;;;;;5036699;28;20409;-83
2020/12/04 10:22:01;;;;;;;10.63;7.45;;;4.90;99.90;;;;;;5032368;28;20081;-83
2020/12/04 10:24:28;;;;;;;12.23;8.23;;;4.90;99.90;;;;;;5041751;28;20037;-83
2020/12/04 10:26:55;;;;;;;12.98;7.55;;;5.00;99.90;;;;;;5041616;28;20063;-81
2020/12/04 10:29:22;;;;;;;12.10;7.65;;;4.90;99.90;;;;;;5036822;28;20068;-83
2020/12/04 10:31:48;;;;;;;14.75;7.55;;;5.00;99.90;;;;;;5033074;28;20049;-82
2020/12/04 10:34:16;;;;;;;12.40;7.07;;;5.10;99.90;;;;;;5032900;28;20053;-83
2020/12/04 10:36:43;;;;;;;13.10;7.90;;;5.10;99.90;;;;;;5031568;28;20076;-83
2020/12/04 10:39:11;;;;;;;14.25;7.72;;;5.30;99.90;;;;;;5032788;28;20055;-82
2020/12/04 10:41:39;;;;;;;14.05;6.80;;;5.50;99.90;;;;;;5031844;28;20494;-82
2020/12/04 10:44:07;;;;;;;12.55;7.43;;;5.80;99.90;;;;;;5032339;28;20145;-83
2020/12/04 10:46:35;;;;;;;10.52;7.10;;;6.00;99.90;;;;;;5032368;28;20056;-82
2020/12/04 10:49:02;;;;;;;12.30;6.90;;;6.10;99.40;;;;;;5031192;28;20049;-82
2020/12/04 10:51:28;;;;;;;15.98;6.68;;;6.20;97.20;;;;;;5031539;28;20088;-82
2020/12/04 10:53:55;;;;;;;17.10;7.20;;;6.30;96.40;;;;;;5032107;28;20132;-82
2020/12/04 10:56:22;;;;;;;12.93;6.90;;;6.60;96.40;;;;;;5034155;28;20119;-83
2020/12/04 10:58:50;;;;;;;11.93;7.05;;;6.80;94.70;;;;;;5037291;28;20390;-83
2020/12/04 11:01:35;;;;;;;12.77;7.22;;;7.00;93.40;;;;;;5035231;28;20133;-83
2020/12/04 11:06:46;;;;;;;27.90;15.38;;;7.00;91.90;;;;;;5040001;28;20431;-83
2020/12/04 11:09:12;;;;;;;14.02;7.68;;;7.20;91.60;;;;;;5036931;28;20056;-83
2020/12/04 11:11:39;;;;;;;18.92;10.95;;;7.50;90.70;;;;;;5037252;28;20053;-83
2020/12/04 11:14:05;;;;;;;15.20;11.07;;;8.00;89.00;;;;;;5037188;28;20533;-83
2020/12/04 11:16:31;;;;;;;13.90;6.68;;;8.70;84.50;;;;;;5036438;28;20048;-83
2020/12/04 11:18:58;;;;;;;14.45;6.82;;;9.60;78.20;;;;;;5036569;28;20149;-84
2020/12/04 11:21:28;;;;;;;49.85;9.32;;;10.90;70.00;;;;;;5035466;28;20073;-83
2020/12/04 11:23:55;;;;;;;17.88;7.43;;;11.30;66.10;;;;;;5035440;28;20124;-81
2020/12/04 11:26:22;;;;;;;8.60;6.00;;;12.40;62.70;;;;;;5036771;28;20583;-81
2020/12/04 11:28:48;;;;;;;51.45;9.18;;;13.30;58.40;;;;;;5035024;28;20080;-81
2020/12/04 11:31:14;;;;;;;39.63;9.55;;;13.50;56.70;;;;;;5036229;28;20505;-82
2020/12/04 11:33:40;;;;;;;24.90;8.00;;;14.80;54.10;;;;;;5036990;28;20092;-81
2020/12/04 11:36:08;;;;;;;21.40;8.15;;;14.50;51.90;;;;;;5035053;28;20046;-80
2020/12/04 11:38:34;;;;;;;21.13;7.63;;;15.40;50.50;;;;;;5036464;28;20053;-81
2020/12/04 11:41:01;;;;;;;24.75;8.43;;;16.40;48.20;;;;;;5044139;23;20465;-89
2020/12/04 11:43:27;;;;;;;15.77;7.53;;;16.90;46.70;;;;;;5018856;28;20096;-88
2020/12/04 11:45:53;;;;;;;12.35;6.20;;;15.50;47.40;;;;;;5034518;28;20045;-88
2020/12/04 11:48:20;;;;;;;24.30;7.57;;;14.20;50.90;;;;;;5035519;28;20137;-89
2020/12/04 11:50:46;;;;;;;16.95;7.35;;;13.00;52.90;;;;;;5018229;28;20141;-88
2020/12/04 11:53:14;;;;;;;25.80;8.45;;;12.10;55.00;;;;;;5017881;28;20136;-88
2020/12/04 11:55:40;;;;;;;10.35;6.88;;;11.20;58.60;;;;;;5018139;28;20056;-89
2020/12/04 11:58:07;;;;;;;111.28;11.77;;;12.50;58.30;;;;;;5034269;28;20132;-88
2020/12/04 12:00:33;;;;;;;26.20;6.82;;;13.30;56.10;;;;;;5035552;28;20490;-89
2020/12/04 12:02:59;;;;;;;23.48;6.75;;;14.00;53.00;;;;;;5036008;28;20140;-89
2020/12/04 12:05:26;;;;;;;28.05;6.25;;;14.20;52.80;;;;;;5017962;28;20049;-88
2020/12/04 12:07:52;;;;;;;24.25;6.40;;;14.80;51.20;;;;;;5016610;28;20075;-88
2020/12/04 12:10:18;;;;;;;17.92;5.75;;;14.00;51.50;;;;;;5035309;28;20132;-88
2020/12/04 12:12:44;;;;;;;23.23;6.63;;;13.20;53.30;;;;;;5034933;28;20049;-88
2020/12/04 12:15:11;;;;;;;34.88;7.82;;;12.90;54.70;;;;;;5044347;28;20081;-88
2020/12/04 12:17:37;;;;;;;32.45;6.78;;;12.50;55.20;;;;;;5016549;28;20132;-89
2020/12/04 12:20:04;;;;;;;18.63;5.75;;;10.20;59.90;;;;;;5016480;28;20136;-88
2020/12/04 12:22:30;;;;;;;17.73;6.03;;;9.40;62.90;;;;;;5034961;28;20139;-88
2020/12/04 12:24:56;;;;;;;18.27;7.18;;;9.00;65.80;;;;;;5017677;28;20109;-90
2020/12/04 12:27:23;;;;;;;13.68;5.38;;;8.60;67.40;;;;;;5033934;28;20124;-90
2020/12/04 12:29:50;;;;;;;20.50;6.43;;;7.70;70.70;;;;;;5016003;28;20091;-90
2020/12/04 12:32:16;;;;;;;25.40;6.10;;;7.10;75.90;;;;;;5048718;28;20569;-90
2020/12/04 12:37:30;;;;;;;282.75;131.27;;;6.30;90.00;;;;;;5033007;28;20407;-89
2020/12/04 12:39:58;;;;;;;42.65;12.52;;;5.90;95.90;;;;;;5034161;28;20092;-90
2020/12/04 12:42:25;;;;;;;47.28;15.25;;;5.40;99.90;;;;;;5034936;28;20041;-89
2020/12/04 12:44:51;;;;;;;62.65;10.73;;;5.00;99.90;;;;;;5017611;28;20132;-90
2020/12/04 12:47:18;;;;;;;29.83;7.60;;;4.70;99.90;;;;;;5049319;28;20085;-89
2020/12/04 12:49:45;;;;;;;68.25;19.88;;;4.70;99.90;;;;;;5034497;28;20105;-89
2020/12/04 12:52:15;;;;;;;52.42;8.65;;;4.80;99.90;;;;;;5016891;28;20050;-89
2020/12/04 12:54:42;;;;;;;855.30;359.50;;;4.70;99.90;;;;;;5017089;28;20140;-89
2020/12/04 12:57:10;;;;;;;44.78;16.98;;;4.60;99.90;;;;;;5016970;28;20050;-89
2020/12/04 12:59:36;;;;;;;395.20;126.45;;;4.70;99.90;;;;;;5051977;28;20045;-89